Time;durP1;ratioP1;P1;durP2;ratioP2;P2;SDS_P1;SDS_P2;PMS_P1;PMS_P2;Temp;Humidity;BMP_temperature;BMP_pressure;BME280_temperature;BME280_humidity;BME280_pressure;Samples;Min_cycle;Max_cycle;Signal;HPM_P1;HPM_P2
2022/10/07 06:00:15;;;;;;;;;4.00;4.00;;;;;17.67;57.92;102277.44;5069006;27;46329;-76
2022/10/07 06:02:41;;;;;;;;;8.00;5.75;;;;;17.78;57.68;102271.41;5055152;27;45476;-74
2022/10/07 06:05:07;;;;;;;;;6.00;6.00;;;;;17.97;57.29;102271.16;5066030;27;45485;-72
2022/10/07 06:07:32;;;;;;;;;5.00;5.00;;;;;18.23;57.07;102278.59;5065593;27;45851;-73
2022/10/07 06:15:25;;;;;;;;;8.33;8.33;;;;;19.07;54.92;102266.09;5054743;27;46724;-75
2022/10/07 06:17:50;;;;;;;;;7.00;7.00;;;;;19.32;54.81;102271.66;5058062;27;45538;-74
2022/10/07 06:20:16;;;;;;;;;7.00;7.00;;;;;19.57;53.83;102273.56;5057905;27;48057;-75
2022/10/07 06:22:43;;;;;;;;;6.00;5.00;;;;;19.79;53.44;102273.91;5055363;28;50545;-74
2022/10/07 06:25:08;;;;;;;;;5.50;5.00;;;;;19.97;53.34;102278.06;5056822;28;45786;-75
2022/10/07 06:27:34;;;;;;;;;7.00;6.00;;;;;20.13;53.15;102272.47;5055383;28;45994;-75
2022/10/07 06:30:00;;;;;;;;;8.67;7.00;;;;;20.28;52.33;102266.94;5056882;28;45463;-75
2022/10/07 06:32:28;;;;;;;;;8.00;8.00;;;;;20.44;52.24;102269.38;5056815;28;45435;-75
2022/10/07 06:34:53;;;;;;;;;5.00;5.00;;;;;20.58;51.68;102265.69;5059490;28;46653;-75
2022/10/07 06:37:19;;;;;;;;;7.67;6.00;;;;;20.71;51.35;102278.28;5059264;27;53719;-75
2022/10/07 06:39:44;;;;;;;;;8.00;5.33;;;;;20.83;51.53;102280.09;5054871;27;47097;-74
2022/10/07 06:42:10;;;;;;;;;5.00;5.00;;;;;20.95;51.61;102281.03;5057352;27;46134;-74
2022/10/07 06:44:35;;;;;;;;;5.00;5.00;;;;;21.08;51.57;102280.97;5055275;28;45424;-74
2022/10/07 06:47:01;;;;;;;;;5.00;5.00;;;;;21.17;51.26;102276.75;5068872;28;45371;-73
2022/10/07 06:49:26;;;;;;;;;6.00;5.67;;;;;21.28;50.80;102278.63;5062773;27;45967;-75
2022/10/07 06:54:15;;;;;;;;;9.67;9.00;;;;;21.44;50.59;102268.38;5003822;27;47283;-74
2022/10/07 06:56:40;;;;;;;;;5.67;5.67;;;;;21.50;50.15;102261.63;4994941;27;45538;-74
2022/10/07 06:59:06;;;;;;;;;5.33;5.00;;;;;21.61;49.96;102268.06;4997630;27;45932;-74
2022/10/07 07:01:32;;;;;;;;;8.00;7.33;;;;;21.70;50.29;102270.03;4993367;27;45738;-74
2022/10/07 07:03:57;;;;;;;;;7.33;7.00;;;;;21.77;49.90;102265.03;4995106;27;45726;-72
2022/10/07 07:06:23;;;;;;;;;6.67;6.67;;;;;21.83;49.81;102264.59;4996354;27;47321;-82
2022/10/07 07:08:49;;;;;;;;;5.00;5.00;;;;;21.89;49.88;102264.09;5002193;27;45479;-82
2022/10/07 07:13:59;;;;;;;;;4.67;4.67;;;;;22.00;49.87;102267.78;5001197;27;45962;-78
2022/10/07 07:16:25;;;;;;;;;6.33;6.33;;;;;22.09;49.65;102261.66;5027284;27;45693;-79
2022/10/07 07:18:55;;;;;;;;;6.00;6.00;;;;;22.17;50.22;102269.16;5010404;27;45482;-79
2022/10/07 07:21:21;;;;;;;;;5.67;5.67;;;;;22.24;49.34;102267.69;5011975;27;45525;-77
2022/10/07 07:23:47;;;;;;;;;3.00;3.00;;;;;22.30;49.29;102267.19;5020382;27;45431;-76
2022/10/07 07:26:12;;;;;;;;;4.33;4.33;;;;;22.36;49.39;102265.84;5025812;27;45403;-79
2022/10/07 07:28:38;;;;;;;;;5.67;5.67;;;;;22.35;49.39;102256.88;5013451;27;45610;-80
2022/10/07 07:31:11;;;;;;;;;3.33;3.00;;;;;22.45;49.43;102269.66;5009505;27;45331;-79
2022/10/07 07:33:37;;;;;;;;;6.67;6.67;;;;;22.48;49.14;102269.41;5010342;27;46269;-79
2022/10/07 07:36:15;;;;;;;;;8.00;6.00;;;;;22.50;49.43;102273.72;5008824;27;45480;-79
2022/10/07 07:38:42;;;;;;;;;5.67;5.67;;;;;22.48;49.30;102264.84;5010477;27;45396;-82
2022/10/07 07:41:08;;;;;;;;;6.00;6.00;;;;;22.54;49.40;102273.47;5009365;27;45653;-80
2022/10/07 07:43:34;;;;;;;;;5.33;5.00;;;;;22.57;49.37;102265.13;5014333;27;46526;-79
2022/10/07 07:45:59;;;;;;;;;6.33;5.00;;;;;22.58;49.02;102254.16;5014711;27;45472;-79
2022/10/07 07:48:25;;;;;;;;;5.33;5.00;;;;;22.64;48.99;102263.63;5027262;27;45456;-80
2022/10/07 07:50:50;;;;;;;;;5.33;5.33;;;;;22.61;49.01;102256.59;5009599;27;45447;-79
2022/10/07 07:53:16;;;;;;;;;3.67;3.33;;;;;22.63;48.96;102249.25;5014347;27;51476;-80
2022/10/07 07:55:54;;;;;;;;;6.00;6.00;;;;;22.66;48.80;102252.66;5011024;27;45467;-79
2022/10/07 07:58:21;;;;;;;;;6.00;6.00;;;;;22.72;48.76;102279.25;5009814;27;45373;-75
2022/10/07 08:01:01;;;;;;;;;7.00;5.33;;;;;22.66;47.79;102241.84;5007230;27;45947;-75
2022/10/07 08:03:26;;;;;;;;;7.33;7.33;;;;;22.76;47.27;102253.63;5006275;27;45591;-75
2022/10/07 08:05:52;;;;;;;;;5.00;5.00;;;;;22.74;47.20;102250.19;4993394;27;45381;-75
2022/10/07 08:08:18;;;;;;;;;6.00;6.00;;;;;22.72;46.94;102258.44;4999619;27;45769;-73
2022/10/07 08:10:43;;;;;;;;;6.67;6.33;;;;;22.70;47.18;102248.72;5004118;28;45826;-78
2022/10/07 08:13:08;;;;;;;;;9.67;6.67;;;;;22.71;47.45;102251.31;5007892;27;65329;-75
2022/10/07 08:15:34;;;;;;;;;5.00;5.00;;;;;22.72;47.57;102252.19;4994644;27;45489;-76
2022/10/07 08:18:00;;;;;;;;;7.67;7.00;;;;;22.73;47.59;102248.47;4999674;27;45655;-77
2022/10/07 08:20:26;;;;;;;;;5.00;5.00;;;;;22.78;47.74;102248.97;5001953;27;45538;-78
2022/10/07 08:22:51;;;;;;;;;6.33;4.67;;;;;22.80;47.46;102246.97;4997823;27;51452;-79
2022/10/07 08:25:17;;;;;;;;;5.00;5.00;;;;;22.83;47.75;102253.97;5011687;27;45398;-80
2022/10/07 08:27:42;;;;;;;;;5.00;5.00;;;;;22.83;47.64;102241.31;5024026;27;45872;-81
2022/10/07 08:30:08;;;;;;;;;6.00;6.00;;;;;22.89;47.61;102242.66;4993819;27;45446;-81
2022/10/07 08:32:34;;;;;;;;;6.67;6.67;;;;;22.97;47.63;102242.00;4993410;27;45440;-80
2022/10/07 08:34:59;;;;;;;;;5.33;5.33;;;;;22.99;47.98;102232.78;4993953;27;45819;-81
2022/10/07 08:37:24;;;;;;;;;6.67;6.67;;;;;23.05;47.77;102236.78;4995768;27;49409;-80
2022/10/07 08:39:49;;;;;;;;;5.67;5.67;;;;;23.09;47.78;102232.84;5005376;27;52705;-83
2022/10/07 08:42:38;;;;;;;;;5.33;5.33;;;;;23.10;47.68;102229.13;4992713;27;53765;-79
2022/10/07 08:45:09;;;;;;;;;5.00;5.00;;;;;23.10;46.49;102221.00;4993150;27;45592;-78
2022/10/07 08:47:44;;;;;;;;;4.00;4.00;;;;;23.11;46.95;102222.75;4991778;27;45440;-84
2022/10/07 08:50:24;;;;;;;;;5.00;5.00;;;;;23.09;46.97;102216.59;4999279;27;45324;-84
2022/10/07 08:53:02;;;;;;;;;0.33;0.33;;;;;23.10;46.96;102220.16;4997133;27;45806;-82
2022/10/07 08:55:44;;;;;;;;;4.33;4.00;;;;;23.13;47.12;102220.75;4997958;27;45302;-82
2022/10/07 08:58:25;;;;;;;;;7.00;5.00;;;;;23.14;47.49;102217.06;4982542;27;45473;-81
2022/10/07 09:01:03;;;;;;;;;5.67;5.00;;;;;23.19;47.14;102218.53;4989890;27;45837;-82
2022/10/07 09:03:50;;;;;;;;;6.00;6.00;;;;;23.21;47.36;102208.44;4996060;27;45615;-83
2022/10/07 09:06:39;;;;;;;;;6.00;6.00;;;;;23.23;47.28;102210.03;4993474;27;45632;-81
2022/10/07 09:09:19;;;;;;;;;5.00;5.00;;;;;23.26;47.15;102203.47;4994333;27;45862;-83
2022/10/07 09:11:47;;;;;;;;;6.33;5.33;;;;;23.25;47.16;102183.66;5000191;27;45546;-80
2022/10/07 09:14:36;;;;;;;;;5.00;5.00;;;;;23.32;47.30;102186.69;4995001;27;45617;-80
2022/10/07 09:17:14;;;;;;;;;5.00;5.00;;;;;23.37;47.34;102191.72;4994327;27;45733;-79
2022/10/07 09:19:47;;;;;;;;;6.00;6.00;;;;;23.42;47.07;102190.34;4991469;27;45611;-79
2022/10/07 09:22:26;;;;;;;;;6.00;6.00;;;;;23.43;47.23;102183.94;4979542;27;45415;-80
2022/10/07 09:25:01;;;;;;;;;3.67;3.67;;;;;23.47;47.48;102181.84;5018187;27;46412;-81
2022/10/07 09:27:26;;;;;;;;;5.00;5.00;;;;;23.51;47.10;102172.41;4980391;27;45389;-75
2022/10/07 09:29:51;;;;;;;;;6.00;5.00;;;;;23.55;47.18;102171.16;5007703;27;45896;-79
2022/10/07 09:32:18;;;;;;;;;6.33;4.67;;;;;23.61;47.36;102167.06;5001787;27;52616;-80
2022/10/07 09:34:44;;;;;;;;;4.67;4.67;;;;;23.66;47.11;102172.06;4991960;27;46358;-80
2022/10/07 09:37:18;;;;;;;;;5.00;5.00;;;;;23.71;47.19;102168.97;4992405;27;45481;-80
2022/10/07 09:39:44;;;;;;;;;6.00;4.00;;;;;23.74;46.96;102158.72;4991202;27;45456;-81
2022/10/07 09:42:42;;;;;;;;;5.00;5.00;;;;;23.80;46.98;102157.31;5006263;27;45520;-82
2022/10/07 09:45:32;;;;;;;;;5.00;5.00;;;;;23.84;47.31;102156.06;4990441;27;46143;-78
2022/10/07 09:48:06;;;;;;;;;4.00;4.00;;;;;23.86;46.82;102147.78;4979969;27;45542;-76
2022/10/07 09:50:40;;;;;;;;;5.00;5.00;;;;;23.91;46.82;102149.06;4992089;27;45416;-76
2022/10/07 09:53:20;;;;;;;;;5.00;5.00;;;;;23.93;46.55;102144.38;4990341;27;45560;-75
2022/10/07 09:55:46;;;;;;;;;5.00;4.67;;;;;23.99;46.51;102142.13;4989343;27;46183;-75
2022/10/07 09:58:25;;;;;;;;;6.00;6.00;;;;;24.02;46.04;102142.69;4995413;27;45472;-74
2022/10/07 10:00:53;;;;;;;;;5.00;5.00;;;;;24.06;45.22;102137.84;4993947;27;45448;-73
2022/10/07 10:03:19;;;;;;;;;6.67;5.00;;;;;24.11;44.92;102129.34;4988078;27;45521;-73
2022/10/07 10:06:02;;;;;;;;;5.00;3.00;;;;;24.15;44.82;102125.34;4992668;28;46973;-74
2022/10/07 10:08:36;;;;;;;;;9.00;6.00;;;;;24.17;44.62;102123.34;4990725;27;45305;-76
2022/10/07 10:11:05;;;;;;;;;5.67;3.67;;;;;24.15;44.60;102120.78;4993945;27;45464;-76
2022/10/07 10:13:33;;;;;;;;;5.00;5.00;;;;;24.15;44.50;102117.22;4992686;27;45545;-75
2022/10/07 10:16:00;;;;;;;;;5.33;5.33;;;;;24.14;44.58;102110.06;4985893;27;45575;-75
2022/10/07 10:18:30;;;;;;;;;8.67;7.67;;;;;24.12;44.31;102114.78;4991535;27;45379;-76
2022/10/07 10:21:13;;;;;;;;;7.33;6.00;;;;;24.07;44.58;102109.72;4991163;28;45473;-79
2022/10/07 10:23:44;;;;;;;;;5.00;5.00;;;;;23.98;44.71;102107.88;5064935;27;45405;-80
2022/10/07 10:26:24;;;;;;;;;6.00;5.00;;;;;23.95;44.92;102109.84;4990988;27;46503;-80
2022/10/07 10:29:12;;;;;;;;;6.00;6.00;;;;;23.95;45.20;102100.88;5020127;27;45538;-80
2022/10/07 10:31:51;;;;;;;;;4.67;4.67;;;;;23.95;45.55;102103.59;4985882;28;45393;-84
2022/10/07 10:34:32;;;;;;;;;5.00;5.00;;;;;23.99;45.33;102098.72;4981181;27;45467;-75
2022/10/07 10:37:05;;;;;;;;;4.67;4.00;;;;;24.04;45.43;102094.59;4990612;27;46230;-75
2022/10/07 10:39:46;;;;;;;;;6.33;6.00;;;;;24.11;45.31;102092.19;4987009;27;45458;-75
2022/10/07 10:42:18;;;;;;;;;7.00;4.67;;;;;24.16;45.25;102076.38;4989433;27;45533;-76
2022/10/07 10:45:06;;;;;;;;;4.33;4.33;;;;;24.23;45.05;102081.25;4990073;27;45454;-76
2022/10/07 10:47:46;;;;;;;;;5.00;5.00;;;;;24.24;44.90;102064.84;4979365;27;47265;-74
2022/10/07 10:50:28;;;;;;;;;5.67;4.67;;;;;24.33;44.94;102072.09;4983028;27;45567;-74
2022/10/07 10:53:33;;;;;;;;;5.67;5.67;;;;;24.38;44.92;102060.84;4987574;27;46628;-72
2022/10/07 10:56:22;;;;;;;;;6.00;5.00;;;;;24.44;44.79;102057.53;4984931;27;46889;-73
2022/10/07 10:58:59;;;;;;;;;5.67;5.67;;;;;24.47;44.23;102054.56;4995442;28;47030;-74
2022/10/07 11:01:38;;;;;;;;;7.00;5.00;;;;;24.52;44.35;102055.97;4988300;27;45457;-74
2022/10/07 11:04:26;;;;;;;;;4.33;4.33;;;;;24.54;44.58;102048.53;4991928;27;45661;-73
2022/10/07 11:07:01;;;;;;;;;6.00;5.33;;;;;24.55;44.53;102045.69;4991532;27;45532;-82
2022/10/07 11:09:40;;;;;;;;;5.00;5.00;;;;;24.57;44.88;102048.25;5000968;28;45431;-78
2022/10/07 11:12:20;;;;;;;;;7.67;5.33;;;;;24.55;44.49;102040.25;4982282;28;45609;-79
2022/10/07 11:14:52;;;;;;;;;7.33;5.67;;;;;24.56;44.48;102041.97;5005307;27;45444;-78
2022/10/07 11:17:24;;;;;;;;;4.00;4.00;;;;;24.56;44.52;102025.69;4991641;28;45337;-78
2022/10/07 11:20:11;;;;;;;;;3.00;3.00;;;;;24.59;44.53;102027.25;4989303;27;45653;-78
2022/10/07 11:22:43;;;;;;;;;4.33;4.33;;;;;24.62;44.71;102026.97;5001141;28;45470;-75
2022/10/07 11:25:26;;;;;;;;;5.67;4.00;;;;;24.65;44.96;102012.25;4991352;28;45584;-78
2022/10/07 11:27:55;;;;;;;;;5.33;5.33;;;;;24.68;45.07;102011.97;5004234;27;45496;-78
2022/10/07 11:30:22;;;;;;;;;5.00;3.67;;;;;24.63;44.78;101998.81;5020505;27;47215;-76
2022/10/07 13:06:14;;;;;;;;;3.00;3.00;;;;;20.48;50.26;101849.31;5087061;27;45548;-77
2022/10/07 13:09:08;;;;;;;;;2.00;2.00;;;;;20.35;50.20;101812.50;5072224;28;45500;-78
2022/10/07 13:12:00;;;;;;;;;4.00;1.00;;;;;20.66;50.59;101839.75;5086444;27;45482;-82
2022/10/07 13:14:48;;;;;;;;;2.00;2.00;;;;;20.92;50.71;101844.03;5071362;28;45549;-80
2022/10/07 13:17:19;;;;;;;;;2.00;2.00;;;;;21.19;49.64;101829.28;5090987;27;45543;-80
2022/10/07 13:19:53;;;;;;;;;2.00;2.00;;;;;21.43;49.59;101831.81;5087246;27;45438;-80
2022/10/07 13:22:20;;;;;;;;;1.00;1.00;;;;;21.51;49.27;101796.06;5082163;27;45313;-86
2022/10/07 13:24:52;;;;;;;;;2.67;1.33;;;;;21.95;49.30;101822.16;5073877;27;45454;-80
2022/10/07 13:27:24;;;;;;;;;3.00;3.00;;;;;22.19;48.89;101826.44;5085662;27;45916;-80
2022/10/07 13:29:49;;;;;;;;;1.33;1.33;;;;;22.36;48.55;101819.53;5079986;27;45493;-80
2022/10/07 13:32:23;;;;;;;;;2.67;2.00;;;;;22.55;47.85;101818.78;5077806;27;45422;-80
2022/10/07 13:34:48;;;;;;;;;1.33;1.33;;;;;22.73;47.72;101824.41;5070733;28;45544;-79
2022/10/07 13:37:34;;;;;;;;;3.33;2.00;;;;;22.96;47.28;101816.06;5086205;27;47052;-80
2022/10/07 13:40:34;;;;;;;;;2.00;2.00;;;;;23.13;46.98;101814.53;5077102;27;45478;-80
2022/10/07 13:43:05;;;;;;;;;2.00;2.00;;;;;23.29;46.78;101805.88;5072311;27;45482;-80
2022/10/07 13:45:39;;;;;;;;;3.00;2.00;;;;;23.44;46.55;101810.91;5087030;27;45533;-80
2022/10/07 13:48:05;;;;;;;;;3.00;3.00;;;;;23.55;46.36;101799.91;5071118;27;46177;-81
2022/10/07 13:50:33;;;;;;;;;1.33;1.33;;;;;23.68;45.90;101802.34;5076066;27;45391;-79
2022/10/07 13:52:59;;;;;;;;;4.33;3.00;;;;;23.78;45.87;101799.63;5077488;27;45513;-79
2022/10/07 13:55:25;;;;;;;;;1.00;1.00;;;;;23.88;45.02;101794.19;5087570;27;45356;-81
2022/10/07 13:57:52;;;;;;;;;2.00;2.00;;;;;23.92;45.28;101792.03;5070076;27;45421;-79
2022/10/07 14:00:18;;;;;;;;;3.67;2.67;;;;;24.03;44.27;101794.56;5076171;27;45464;-80
2022/10/07 14:02:43;;;;;;;;;2.67;1.33;;;;;24.06;44.93;101779.84;5070000;27;45440;-80
2022/10/07 14:05:28;;;;;;;;;1.67;1.67;;;;;24.12;44.93;101781.16;5079927;27;45506;-79
2022/10/07 14:07:59;;;;;;;;;2.00;2.00;;;;;24.18;44.72;101775.16;5090938;27;46328;-79
2022/10/07 14:10:28;;;;;;;;;1.67;1.33;;;;;24.23;44.54;101775.56;5089084;27;45429;-78
2022/10/07 14:12:58;;;;;;;;;2.67;2.00;;;;;24.28;44.01;101772.41;5090691;27;45540;-79
2022/10/07 14:15:29;;;;;;;;;1.67;1.67;;;;;24.34;44.24;101774.53;5086979;27;45560;-79
2022/10/07 14:18:05;;;;;;;;;4.67;2.67;;;;;24.38;44.19;101765.09;5076364;27;46104;-79
2022/10/07 14:20:35;;;;;;;;;1.33;1.00;;;;;24.40;44.04;101756.78;5077109;27;45466;-79
2022/10/07 14:23:02;;;;;;;;;3.33;2.00;;;;;24.39;43.49;101746.97;5076785;27;45374;-79
2022/10/07 14:25:48;;;;;;;;;1.33;1.33;;;;;24.49;44.04;101747.75;5074033;28;45458;-77
2022/10/07 14:28:16;;;;;;;;;1.00;1.00;;;;;24.48;44.16;101743.31;5077866;27;47104;-77
2022/10/07 14:36:25;;;;;;;;;2.00;1.00;;;;;24.33;44.38;101741.09;5079771;27;45679;-78
2022/10/07 14:38:51;;;;;;;;;1.00;1.00;;;;;24.38;44.92;101739.78;5074313;27;46448;-80
2022/10/07 14:41:20;;;;;;;;;1.00;1.00;;;;;24.39;44.83;101738.81;5079353;27;45549;-79
2022/10/07 14:43:47;;;;;;;;;2.33;1.00;;;;;24.40;44.50;101740.53;5075999;27;45555;-78
2022/10/07 14:46:17;;;;;;;;;1.00;1.00;;;;;24.42;44.97;101733.06;5077251;28;45450;-78
2022/10/07 14:48:43;;;;;;;;;2.67;2.00;;;;;24.42;45.05;101731.22;5075276;27;45752;-75
2022/10/07 14:51:09;;;;;;;;;1.33;1.33;;;;;24.46;45.02;101726.34;5076942;28;45319;-75
2022/10/07 14:53:36;;;;;;;;;1.00;1.00;;;;;24.47;45.23;101723.47;5074725;27;45395;-76
2022/10/07 14:56:03;;;;;;;;;1.00;1.00;;;;;24.48;45.01;101722.47;5075341;27;45390;-75
2022/10/07 14:58:28;;;;;;;;;4.67;0.67;;;;;24.53;45.07;101729.31;5090468;27;46986;-76
2022/10/07 15:00:54;;;;;;;;;1.00;1.00;;;;;24.54;44.79;101717.44;5071068;28;45734;-75
2022/10/07 15:03:19;;;;;;;;;1.67;0.33;;;;;24.57;45.00;101717.97;5070927;27;45343;-77
2022/10/07 15:05:46;;;;;;;;;1.00;1.00;;;;;24.56;45.00;101710.00;5066395;28;50344;-77
2022/10/07 15:08:11;;;;;;;;;0.00;0.00;;;;;24.56;44.84;101713.56;5075256;27;46027;-78
2022/10/07 15:10:40;;;;;;;;;1.00;1.00;;;;;24.58;45.45;101713.41;5075144;27;45462;-78
2022/10/07 15:13:08;;;;;;;;;0.67;0.67;;;;;24.56;45.23;101716.28;5080563;27;45438;-79
2022/10/07 15:15:37;;;;;;;;;1.33;1.33;;;;;24.57;44.91;101707.13;5076679;27;45533;-77
2022/10/07 15:18:02;;;;;;;;;1.00;1.00;;;;;24.56;44.98;101710.00;5078560;27;46566;-78
2022/10/07 15:20:27;;;;;;;;;0.67;0.67;;;;;24.53;44.98;101685.88;5075244;27;45452;-78
2022/10/07 15:22:53;;;;;;;;;0.00;0.00;;;;;24.58;45.41;101695.28;5077251;27;45402;-76
2022/10/07 15:25:19;;;;;;;;;0.00;0.00;;;;;24.58;45.41;101694.41;5073934;27;56694;-76
2022/10/07 15:27:45;;;;;;;;;1.00;1.00;;;;;24.60;45.28;101690.53;5074144;27;47086;-76
2022/10/07 15:30:11;;;;;;;;;0.33;0.33;;;;;24.59;45.15;101688.84;5074452;27;45395;-76
2022/10/07 16:14:35;;;;;;;;;3.00;2.00;;;;;21.19;48.51;101684.38;5071917;27;45552;-75
2022/10/07 16:17:00;;;;;;;;;0.67;0.67;;;;;21.25;48.21;101695.63;5057173;28;45493;-73
2022/10/07 16:19:26;;;;;;;;;2.00;2.00;;;;;21.29;48.51;101687.13;5069546;28;45509;-76
2022/10/07 16:21:51;;;;;;;;;1.00;1.00;;;;;21.41;48.51;101700.56;5057097;28;50183;-75
2022/10/07 16:24:18;;;;;;;;;6.00;2.00;;;;;21.53;48.33;101694.13;5071104;28;45618;-74
2022/10/07 16:26:45;;;;;;;;;1.33;1.33;;;;;21.74;48.68;101692.44;5070189;28;45724;-76
2022/10/07 16:32:09;;;;;;;;;4.00;1.00;;;;;22.07;47.71;101690.47;5071575;27;45472;-77
2022/10/07 16:34:35;;;;;;;;;1.00;1.00;;;;;22.23;48.00;101693.50;5070710;28;45991;-76
2022/10/07 16:37:01;;;;;;;;;0.33;0.33;;;;;22.38;47.64;101693.13;5070762;28;45447;-76
2022/10/07 16:39:26;;;;;;;;;0.67;0.67;;;;;22.49;47.42;101690.28;5070987;28;45486;-76
2022/10/07 16:41:52;;;;;;;;;0.00;0.00;;;;;22.61;47.35;101698.34;5070098;28;45419;-76
2022/10/07 16:44:18;;;;;;;;;1.00;1.00;;;;;22.70;46.79;101694.81;5072315;27;46069;-76
2022/10/07 16:46:44;;;;;;;;;4.00;1.00;;;;;22.82;46.80;101695.53;5071285;28;45406;-78
2022/10/07 16:49:14;;;;;;;;;0.33;0.33;;;;;22.95;46.53;101702.50;5062385;27;47913;-76
2022/10/07 16:51:40;;;;;;;;;2.00;2.00;;;;;23.02;46.77;101704.50;5059304;28;45509;-76
2022/10/07 16:54:12;;;;;;;;;1.00;1.00;;;;;23.12;45.94;101707.22;5065417;28;45694;-77
2022/10/07 19:34:37;;;;;;;;;5.75;4.25;;;;;18.62;54.30;101752.66;5116842;27;45460;-77
2022/10/07 19:37:03;;;;;;;;;4.00;4.00;;;;;18.75;54.54;101755.31;5111903;27;45446;-76
